Terminal Aerodrome Forecast
Issued by NWS Wilmington, OH

Current Version | Previous Version | Graphics & Text | Print | Product List | Glossary On
Versions: 1 2 3 4 5 6 7 8 9 10 11 12 13
000
FTUS41 KILN 011100
TAFCMH
TAF
KCMH 011134Z 0112/0212 35010KT P6SM FEW060
     FM012200 35006KT P6SM FEW050
     FM020200 VRB03KT P6SM FEW050=

USA.gov is the U.S. government's official web portal to all federal, state and local government web resources and services.